createdAt,value
2022-08-08T00:03:31.698Z,19.30
2022-08-08T00:07:37.927Z,19.20
2022-08-08T00:11:23.551Z,19.10
2022-08-08T00:15:24.350Z,19.10
2022-08-08T00:19:27.181Z,19.00
2022-08-08T00:23:28.550Z,18.90
2022-08-08T00:27:32.948Z,18.90
2022-08-08T00:32:19.884Z,18.80
2022-08-08T00:35:34.314Z,18.70
2022-08-08T00:41:06.863Z,18.70
2022-08-08T00:44:06.252Z,18.60
2022-08-08T00:48:01.524Z,18.60
2022-08-08T00:52:02.204Z,18.60
2022-08-08T00:56:19.073Z,18.50
2022-08-08T01:00:06.736Z,18.50
2022-08-08T01:04:13.953Z,18.50
2022-08-08T01:08:30.203Z,18.50
2022-08-08T01:12:44.454Z,18.40
2022-08-08T01:16:38.829Z,18.40
2022-08-08T01:20:22.172Z,18.40
2022-08-08T01:24:26.054Z,18.40
2022-08-08T01:28:27.792Z,18.30
2022-08-08T01:32:17.343Z,18.30
2022-08-08T01:36:11.256Z,18.20
2022-08-08T01:40:00.319Z,18.20
2022-08-08T01:44:09.582Z,18.10
2022-08-08T01:48:27.633Z,18.00
2022-08-08T01:54:01.379Z,18.00
2022-08-08T01:56:42.442Z,17.90
2022-08-08T02:00:36.454Z,17.90
2022-08-08T02:04:20.826Z,17.90
2022-08-08T02:08:08.763Z,17.80
2022-08-08T02:11:52.672Z,17.80
2022-08-08T02:16:00.687Z,17.80
2022-08-08T02:20:09.227Z,17.80
2022-08-08T02:24:14.778Z,17.80
2022-08-08T02:27:58.638Z,17.80
2022-08-08T02:32:00.887Z,17.80
2022-08-08T02:36:05.183Z,17.70
2022-08-08T02:40:13.762Z,17.70
2022-08-08T02:44:38.106Z,17.70
2022-08-08T02:48:26.213Z,17.60
2022-08-08T02:52:34.888Z,17.60
2022-08-08T02:56:39.334Z,17.60
2022-08-08T03:00:47.056Z,17.50
2022-08-08T03:05:04.993Z,17.50
2022-08-08T03:09:24.657Z,17.40
2022-08-08T03:13:34.104Z,17.30
2022-08-08T03:18:04.810Z,17.30
2022-08-08T03:21:58.355Z,17.30
2022-08-08T03:25:40.972Z,17.20
2022-08-08T03:29:54.821Z,17.20
2022-08-08T03:33:56.711Z,17.10
2022-08-08T03:38:52.640Z,17.00
2022-08-08T03:42:28.407Z,17.00
2022-08-08T03:46:05.064Z,16.90
2022-08-08T03:50:00.612Z,16.90
2022-08-08T03:53:47.237Z,16.80
2022-08-08T03:58:32.222Z,16.80
2022-08-08T04:02:12.448Z,16.80
2022-08-08T04:05:37.894Z,16.80
2022-08-08T04:09:59.068Z,16.70
2022-08-08T04:13:30.836Z,16.70
2022-08-08T04:17:58.133Z,16.70
2022-08-08T04:21:38.006Z,16.60
2022-08-08T04:25:23.346Z,16.70
2022-08-08T04:29:15.082Z,16.70
2022-08-08T04:32:58.169Z,16.60
2022-08-08T04:36:39.919Z,16.60
2022-08-08T04:40:23.869Z,16.60
2022-08-08T04:44:06.325Z,16.60
2022-08-08T04:47:48.052Z,16.50
2022-08-08T04:51:54.927Z,16.50
2022-08-08T04:55:47.613Z,16.50
2022-08-08T04:59:41.867Z,16.50
2022-08-08T05:04:11.241Z,16.50
2022-08-08T05:07:26.921Z,16.50
2022-08-08T05:11:24.635Z,16.50
2022-08-08T05:15:08.622Z,16.50
2022-08-08T05:18:56.595Z,16.50
2022-08-08T05:22:39.206Z,16.50
2022-08-08T05:26:22.344Z,16.40
2022-08-08T05:30:12.454Z,16.50
2022-08-08T05:33:54.197Z,16.40
2022-08-08T05:37:52.676Z,16.40
2022-08-08T05:41:36.004Z,16.40
2022-08-08T05:45:41.428Z,16.50
2022-08-08T05:49:25.303Z,16.50
2022-08-08T05:53:53.918Z,16.50
2022-08-08T05:57:15.639Z,16.60
2022-08-08T06:00:58.733Z,16.60
2022-08-08T06:04:41.033Z,16.70
2022-08-08T06:08:34.545Z,16.70
2022-08-08T06:12:18.580Z,16.80
2022-08-08T06:16:12.150Z,16.80
2022-08-08T06:19:53.904Z,16.90
2022-08-08T06:24:01.987Z,16.90
2022-08-08T06:27:51.244Z,17.00
2022-08-08T06:32:09.041Z,17.10
2022-08-08T06:36:07.350Z,17.10
2022-08-08T06:39:56.022Z,17.20
2022-08-08T06:43:39.546Z,17.20
2022-08-08T06:47:22.119Z,17.30
2022-08-08T06:51:08.382Z,17.40
2022-08-08T06:54:50.466Z,17.40
2022-08-08T06:58:33.410Z,17.40
2022-08-08T07:02:29.158Z,17.50
2022-08-08T07:06:11.559Z,17.60
2022-08-08T07:10:00.220Z,17.60
2022-08-08T07:14:00.853Z,17.70
2022-08-08T07:18:01.690Z,17.80
2022-08-08T07:22:11.863Z,17.90
2022-08-08T07:26:01.517Z,18.00
2022-08-08T07:30:00.975Z,18.00
2022-08-08T07:33:53.429Z,18.20
2022-08-08T07:37:56.270Z,18.20
2022-08-08T07:42:04.604Z,18.40
2022-08-08T07:46:05.631Z,18.40
2022-08-08T07:49:49.388Z,18.60
2022-08-08T07:54:24.157Z,18.70
2022-08-08T07:58:31.682Z,18.80
2022-08-08T08:02:35.104Z,18.90
2022-08-08T08:06:16.345Z,19.10
2022-08-08T08:09:58.573Z,19.10
2022-08-08T08:14:07.773Z,19.20
2022-08-08T08:17:55.818Z,19.30
2022-08-08T08:21:52.358Z,19.40
2022-08-08T08:25:43.787Z,19.60
2022-08-08T08:29:28.728Z,19.60
2022-08-08T08:33:11.001Z,19.80
2022-08-08T08:36:54.741Z,19.80
2022-08-08T08:40:36.960Z,19.90
2022-08-08T08:44:21.004Z,20.00
2022-08-08T08:48:06.410Z,20.10
2022-08-08T08:51:51.767Z,20.30
2022-08-08T08:55:39.443Z,20.40
2022-08-08T08:59:58.927Z,20.50
2022-08-08T09:03:24.226Z,20.60
2022-08-08T09:07:39.438Z,20.70
2022-08-08T09:11:33.255Z,20.80
2022-08-08T09:15:15.285Z,20.90
2022-08-08T09:19:29.125Z,21.00
2022-08-08T09:23:25.647Z,21.10
2022-08-08T09:27:20.071Z,21.20
2022-08-08T09:31:12.896Z,21.30
2022-08-08T09:34:54.862Z,21.40
2022-08-08T09:39:10.036Z,21.60
2022-08-08T09:43:41.164Z,21.70
2022-08-08T09:48:04.582Z,21.80
2022-08-08T09:51:29.820Z,21.90
2022-08-08T09:55:31.137Z,22.00
2022-08-08T10:00:02.027Z,22.10
2022-08-08T10:03:31.496Z,22.30
2022-08-08T10:07:15.807Z,22.30
2022-08-08T10:11:01.310Z,22.40
2022-08-08T10:15:00.094Z,22.50
2022-08-08T10:18:42.954Z,22.60
2022-08-08T10:22:25.605Z,22.70
2022-08-08T10:26:12.298Z,22.80
2022-08-08T10:30:16.666Z,22.90
2022-08-08T10:34:19.464Z,23.00
2022-08-08T10:38:05.306Z,23.10
2022-08-08T10:42:14.913Z,23.20
2022-08-08T10:45:58.904Z,23.20
2022-08-08T10:50:01.284Z,23.40
2022-08-08T10:53:58.019Z,23.50
2022-08-08T10:57:50.454Z,23.60
2022-08-08T11:01:36.481Z,23.70
2022-08-08T11:05:18.452Z,23.80
2022-08-08T11:09:19.436Z,23.80
2022-08-08T11:13:28.605Z,24.00
2022-08-08T11:17:04.168Z,24.00
2022-08-08T11:20:52.384Z,24.10
2022-08-08T11:24:35.631Z,24.20
2022-08-08T11:28:20.298Z,24.20
2022-08-08T11:32:03.680Z,24.30
2022-08-08T11:35:45.460Z,24.30
2022-08-08T11:39:29.357Z,24.40
2022-08-08T11:43:19.231Z,24.50
2022-08-08T11:47:03.573Z,24.60
2022-08-08T11:50:54.839Z,24.70
2022-08-08T11:54:45.030Z,24.80
2022-08-08T11:58:34.751Z,24.80
2022-08-08T12:02:35.893Z,24.90
2022-08-08T12:06:18.546Z,24.90
2022-08-08T12:10:11.092Z,24.90
2022-08-08T12:14:03.590Z,25.00
2022-08-08T12:17:51.066Z,25.10
2022-08-08T12:21:59.174Z,25.10
2022-08-08T12:25:44.744Z,25.20
2022-08-08T12:29:42.421Z,25.20
2022-08-08T12:33:37.486Z,25.30
2022-08-08T12:37:25.866Z,25.40
2022-08-08T12:41:35.363Z,25.40
2022-08-08T12:45:59.128Z,25.40
2022-08-08T12:49:43.764Z,25.50
2022-08-08T12:53:37.982Z,25.60
2022-08-08T12:57:26.103Z,25.60
2022-08-08T13:01:11.919Z,25.70
2022-08-08T13:04:54.801Z,25.70
2022-08-08T13:08:53.670Z,25.80
2022-08-08T13:12:47.008Z,25.90
2022-08-08T13:16:32.955Z,26.00
2022-08-08T13:20:17.416Z,26.10
2022-08-08T13:24:00.222Z,26.20
2022-08-08T13:27:42.906Z,26.30
2022-08-08T13:31:25.687Z,26.40
2022-08-08T13:35:24.184Z,26.50
2022-08-08T13:39:06.970Z,26.60
2022-08-08T13:42:50.694Z,26.80
2022-08-08T13:46:32.581Z,26.90
2022-08-08T13:50:39.780Z,27.10
2022-08-08T13:54:21.265Z,27.20
2022-08-08T13:58:07.847Z,27.30
2022-08-08T14:01:57.995Z,27.50
2022-08-08T14:06:00.429Z,27.60
2022-08-08T14:10:04.427Z,27.80
2022-08-08T14:13:59.901Z,27.90
2022-08-08T14:17:57.695Z,28.10
2022-08-08T14:21:49.016Z,28.20
2022-08-08T14:25:47.050Z,28.40
2022-08-08T14:29:39.458Z,28.60
2022-08-08T14:33:36.410Z,28.90
2022-08-08T14:37:18.806Z,29.40
2022-08-08T14:41:17.666Z,30.00
2022-08-08T14:45:18.287Z,30.80
2022-08-08T14:49:20.429Z,31.70
2022-08-08T14:53:15.163Z,32.50
2022-08-08T14:56:58.117Z,33.50
2022-08-08T15:00:40.097Z,34.30
2022-08-08T15:04:24.147Z,35.20
2022-08-08T15:08:12.579Z,36.10
2022-08-08T15:12:04.671Z,36.90
2022-08-08T15:16:02.837Z,37.80
2022-08-08T15:19:45.583Z,38.70
2022-08-08T15:23:33.334Z,39.60
2022-08-08T15:27:57.681Z,40.40
2022-08-08T15:31:55.983Z,41.00
2022-08-08T15:35:22.200Z,41.70
2022-08-08T15:39:04.427Z,42.30
2022-08-08T15:42:47.627Z,42.80
2022-08-08T15:46:34.750Z,43.40
2022-08-08T15:50:20.869Z,44.00
2022-08-08T15:54:04.221Z,44.60
2022-08-08T15:57:46.070Z,45.20
2022-08-08T16:01:41.030Z,45.60
2022-08-08T16:05:35.884Z,46.00
2022-08-08T16:13:14.926Z,46.60
2022-08-08T16:13:43.596Z,47.00
2022-08-08T16:17:58.012Z,47.60
2022-08-08T16:21:30.846Z,48.00
2022-08-08T16:25:13.647Z,48.40
2022-08-08T16:28:57.088Z,48.70
2022-08-08T16:32:38.874Z,48.90
2022-08-08T16:36:33.601Z,49.20
2022-08-08T16:40:19.577Z,49.60
2022-08-08T16:44:01.822Z,50.00
2022-08-08T16:47:46.525Z,50.10
2022-08-08T16:55:04.274Z,50.20
2022-08-08T16:55:53.803Z,50.40
2022-08-08T16:59:50.830Z,50.80
2022-08-08T17:03:59.078Z,51.20
2022-08-08T17:07:37.523Z,51.40
2022-08-08T17:11:19.887Z,51.60
2022-08-08T17:15:01.745Z,51.60
2022-08-08T17:19:00.651Z,51.50
2022-08-08T17:22:42.802Z,51.50
2022-08-08T17:26:26.689Z,51.60
2022-08-08T17:30:16.307Z,51.60
2022-08-08T17:34:53.906Z,51.70
2022-08-08T17:38:07.174Z,51.90
2022-08-08T17:41:49.625Z,51.90
2022-08-08T17:45:40.430Z,51.60
2022-08-08T17:49:24.901Z,51.00
2022-08-08T17:53:10.418Z,49.70
2022-08-08T17:56:52.562Z,47.60
2022-08-08T18:00:41.127Z,45.60
2022-08-08T18:04:28.751Z,43.70
2022-08-08T18:08:24.641Z,42.00
2022-08-08T18:12:14.694Z,40.40
2022-08-08T18:16:04.313Z,39.00
2022-08-08T18:19:46.493Z,37.90
2022-08-08T18:23:55.840Z,36.80
2022-08-08T18:27:38.335Z,35.90
2022-08-08T18:31:27.746Z,35.00
2022-08-08T18:35:15.521Z,34.20
2022-08-08T18:38:58.684Z,33.60
2022-08-08T18:42:50.016Z,33.00
2022-08-08T18:46:55.237Z,32.60
2022-08-08T18:50:33.822Z,32.10
2022-08-08T18:54:22.452Z,31.70
2022-08-08T18:58:06.445Z,31.20
2022-08-08T19:02:14.239Z,30.90
2022-08-08T19:05:51.750Z,30.50
2022-08-08T19:09:49.377Z,30.10
2022-08-08T19:13:53.338Z,29.90
2022-08-08T19:17:48.173Z,29.60
2022-08-08T19:21:48.950Z,29.30
2022-08-08T19:26:25.043Z,29.00
2022-08-08T19:29:35.699Z,28.70
2022-08-08T19:33:24.540Z,28.50
2022-08-08T19:37:06.443Z,28.20
2022-08-08T19:40:54.550Z,28.00
2022-08-08T19:44:45.784Z,27.70
2022-08-08T19:48:31.247Z,27.50
2022-08-08T19:52:13.642Z,27.30
2022-08-08T19:55:55.450Z,27.10
2022-08-08T19:59:41.992Z,26.90
2022-08-08T20:04:00.987Z,26.70
2022-08-08T20:08:29.032Z,26.50
2022-08-08T20:11:27.418Z,26.40
2022-08-08T20:15:16.824Z,26.20
2022-08-08T20:18:59.222Z,26.00
2022-08-08T20:22:43.316Z,25.90
2022-08-08T20:26:30.233Z,25.70
2022-08-08T20:30:53.931Z,25.60
2022-08-08T20:34:29.166Z,25.50
2022-08-08T20:38:12.736Z,25.30
2022-08-08T20:41:54.563Z,25.20
2022-08-08T20:45:58.101Z,25.10
2022-08-08T20:49:46.625Z,25.00
2022-08-08T20:53:58.990Z,24.90
2022-08-08T20:57:30.888Z,24.80
2022-08-08T21:01:20.186Z,24.60
2022-08-08T21:05:02.202Z,24.60
2022-08-08T21:08:49.254Z,24.40
2022-08-08T21:12:36.561Z,24.30
2022-08-08T21:16:28.685Z,24.20
2022-08-08T21:20:11.604Z,24.10
2022-08-08T21:24:03.125Z,24.00
2022-08-08T21:28:09.681Z,24.00
2022-08-08T21:31:57.784Z,23.80
2022-08-08T21:36:16.873Z,23.70
2022-08-08T21:39:57.070Z,23.60
2022-08-08T21:43:39.050Z,23.50
2022-08-08T21:48:12.845Z,23.40
2022-08-08T21:54:16.841Z,23.30
2022-08-08T21:56:25.974Z,23.30
2022-08-08T21:59:44.097Z,23.20
2022-08-08T22:03:30.630Z,23.10
2022-08-08T22:07:12.378Z,23.00
2022-08-08T22:10:55.137Z,22.90
2022-08-08T22:14:37.241Z,22.80
2022-08-08T22:18:19.247Z,22.70
2022-08-08T22:22:00.986Z,22.70
2022-08-08T22:26:28.212Z,22.60
2022-08-08T22:29:59.761Z,22.50
2022-08-08T22:34:13.391Z,22.40
2022-08-08T22:37:54.498Z,22.30
2022-08-08T22:41:36.961Z,22.30
2022-08-08T22:45:21.072Z,22.20
2022-08-08T22:49:03.634Z,22.10
2022-08-08T22:54:19.658Z,22.00
2022-08-08T22:56:50.169Z,22.00
2022-08-08T23:00:32.464Z,21.90
2022-08-08T23:04:14.517Z,21.80
2022-08-08T23:08:19.880Z,21.80
2022-08-08T23:12:28.968Z,21.70
2022-08-08T23:16:37.758Z,21.60
2022-08-08T23:20:05.998Z,21.50
2022-08-08T23:23:48.440Z,21.40
2022-08-08T23:27:46.122Z,21.30
2022-08-08T23:31:28.306Z,21.30
2022-08-08T23:35:12.712Z,21.20
2022-08-08T23:38:59.502Z,21.20
2022-08-08T23:42:45.202Z,21.10
2022-08-08T23:49:08.548Z,21.10
2022-08-08T23:50:31.221Z,21.00
2022-08-08T23:54:42.664Z,20.90
2022-08-08T23:58:31.966Z,20.90
